createdAt,value
2022-12-31T00:00:41.229Z,0.30
2022-12-31T00:03:11.111Z,0.90
2022-12-31T00:05:40.800Z,0.50
2022-12-31T00:08:08.940Z,0.55
2022-12-31T00:10:41.408Z,0.25
2022-12-31T00:13:10.003Z,0.40
2022-12-31T00:15:39.130Z,0.15
2022-12-31T00:18:07.403Z,0.30
2022-12-31T00:20:35.871Z,0.00
2022-12-31T00:23:05.446Z,0.10
2022-12-31T00:25:35.612Z,0.20
2022-12-31T00:28:03.946Z,0.20
2022-12-31T00:30:32.361Z,0.43
2022-12-31T00:33:00.498Z,0.10
2022-12-31T00:35:28.609Z,0.10
2022-12-31T00:37:57.007Z,0.10
2022-12-31T00:40:26.526Z,0.30
2022-12-31T00:42:54.688Z,0.05
2022-12-31T00:45:22.742Z,0.00
2022-12-31T00:47:50.874Z,0.30
2022-12-31T00:50:19.204Z,0.17
2022-12-31T00:52:47.307Z,0.20
2022-12-31T00:55:15.652Z,0.20
2022-12-31T00:57:45.171Z,0.00
2022-12-31T01:00:14.436Z,0.10
2022-12-31T01:02:42.684Z,0.10
2022-12-31T01:05:10.915Z,0.10
2022-12-31T01:07:39.293Z,0.00
2022-12-31T01:10:08.137Z,0.03
2022-12-31T01:12:36.181Z,0.20
2022-12-31T01:15:06.466Z,0.10
2022-12-31T01:17:35.951Z,0.17
2022-12-31T01:20:04.089Z,0.10
2022-12-31T01:22:32.164Z,0.40
2022-12-31T01:25:00.218Z,0.00
2022-12-31T01:27:28.326Z,0.08
2022-12-31T01:29:56.492Z,0.10
2022-12-31T01:32:26.084Z,0.10
2022-12-31T01:34:54.191Z,0.30
2022-12-31T01:37:22.299Z,0.10
2022-12-31T01:39:50.367Z,0.20
2022-12-31T01:42:18.482Z,0.20
2022-12-31T01:44:51.880Z,0.28
2022-12-31T01:47:26.031Z,0.20
2022-12-31T01:50:00.572Z,0.10
2022-12-31T01:52:32.376Z,0.10
2022-12-31T01:55:06.984Z,1.25
2022-12-31T01:57:36.417Z,1.48
2022-12-31T02:00:06.725Z,0.93
2022-12-31T02:02:34.984Z,0.30
2022-12-31T02:05:11.673Z,0.20
2022-12-31T02:07:40.719Z,0.13
2022-12-31T02:10:09.408Z,0.20
2022-12-31T02:12:37.549Z,0.20
2022-12-31T02:15:06.628Z,0.10
2022-12-31T02:17:44.930Z,0.20
2022-12-31T02:20:48.510Z,0.20
2022-12-31T02:23:46.270Z,0.40
2022-12-31T02:26:50.773Z,0.20
2022-12-31T02:30:06.106Z,0.08
2022-12-31T02:32:54.268Z,0.30
2022-12-31T02:35:28.183Z,0.20
2022-12-31T02:38:02.501Z,0.20
2022-12-31T02:40:30.958Z,0.00
2022-12-31T02:42:59.005Z,0.20
2022-12-31T02:45:33.487Z,0.20
2022-12-31T02:48:16.554Z,0.03
2022-12-31T02:50:56.408Z,0.10
2022-12-31T02:54:04.321Z,0.25
2022-12-31T02:56:37.448Z,0.00
2022-12-31T02:59:32.259Z,0.00
2022-12-31T03:02:15.993Z,0.00
2022-12-31T03:04:48.876Z,0.00
2022-12-31T03:07:21.693Z,0.10
2022-12-31T03:09:50.591Z,0.00
2022-12-31T03:12:37.536Z,0.00
2022-12-31T03:15:06.860Z,0.00
2022-12-31T03:17:36.275Z,0.00
2022-12-31T03:20:22.122Z,0.00
2022-12-31T03:22:50.124Z,0.00
2022-12-31T03:25:33.922Z,0.00
2022-12-31T03:28:03.430Z,0.00
2022-12-31T03:30:33.051Z,0.00
2022-12-31T03:33:03.374Z,0.00
2022-12-31T03:35:32.782Z,0.00
2022-12-31T03:38:01.159Z,0.10
2022-12-31T03:40:30.378Z,0.00
2022-12-31T03:42:58.662Z,0.00
2022-12-31T03:45:26.701Z,0.00
2022-12-31T03:47:54.806Z,0.00
2022-12-31T03:50:24.214Z,0.00
2022-12-31T03:52:52.249Z,0.00
2022-12-31T03:55:20.475Z,0.05
2022-12-31T03:57:48.758Z,0.00
2022-12-31T04:00:19.970Z,0.20
2022-12-31T04:02:48.514Z,0.00
2022-12-31T04:05:18.119Z,0.00
2022-12-31T04:07:47.915Z,0.00
2022-12-31T04:10:17.969Z,0.10
2022-12-31T04:12:46.288Z,0.00
2022-12-31T04:15:18.419Z,0.00
2022-12-31T04:17:47.084Z,0.00
2022-12-31T04:20:15.419Z,0.08
2022-12-31T04:22:44.165Z,0.00
2022-12-31T04:25:13.847Z,0.00
2022-12-31T04:27:43.650Z,0.00
2022-12-31T04:30:14.032Z,0.00
2022-12-31T04:32:42.779Z,0.20
2022-12-31T04:35:12.091Z,0.00
2022-12-31T04:37:40.152Z,0.10
2022-12-31T04:40:10.102Z,0.00
2022-12-31T04:42:39.633Z,0.00
2022-12-31T04:45:08.898Z,0.55
2022-12-31T04:47:36.981Z,0.00
2022-12-31T04:50:05.719Z,0.20
2022-12-31T04:52:40.294Z,0.00
2022-12-31T04:55:11.088Z,0.00
2022-12-31T04:57:42.004Z,0.00
2022-12-31T05:00:11.074Z,0.00
2022-12-31T05:02:39.283Z,0.10
2022-12-31T05:05:08.393Z,0.00
2022-12-31T05:07:36.352Z,0.00
2022-12-31T05:10:05.792Z,0.00
2022-12-31T05:12:33.903Z,0.00
2022-12-31T05:15:03.460Z,0.00
2022-12-31T05:17:31.533Z,0.10
2022-12-31T05:19:59.819Z,0.00
2022-12-31T05:22:30.414Z,0.00
2022-12-31T05:24:59.177Z,0.00
2022-12-31T05:27:28.706Z,0.00
2022-12-31T05:29:56.720Z,0.00
2022-12-31T05:32:26.355Z,0.00
2022-12-31T05:34:54.623Z,0.00
2022-12-31T05:37:22.643Z,0.00
2022-12-31T05:39:50.726Z,0.00
2022-12-31T05:42:18.812Z,0.10
2022-12-31T05:44:47.040Z,0.00
2022-12-31T05:47:15.722Z,0.00
2022-12-31T05:49:45.189Z,0.00
2022-12-31T05:52:13.356Z,0.10
2022-12-31T05:54:41.456Z,0.00
2022-12-31T05:57:10.046Z,0.10
2022-12-31T05:59:38.146Z,0.00
2022-12-31T06:02:06.538Z,0.08
2022-12-31T06:04:34.602Z,0.00
2022-12-31T06:07:04.056Z,0.10
2022-12-31T06:09:32.098Z,0.10
2022-12-31T06:12:00.139Z,0.00
2022-12-31T06:14:28.119Z,0.10
2022-12-31T06:16:56.159Z,0.00
2022-12-31T06:19:24.332Z,0.10
2022-12-31T06:21:54.418Z,0.10
2022-12-31T06:24:23.854Z,0.00
2022-12-31T06:26:51.863Z,0.10
2022-12-31T06:29:19.973Z,0.20
2022-12-31T06:31:48.004Z,0.00
2022-12-31T06:34:16.087Z,0.10
2022-12-31T06:36:44.137Z,0.00
2022-12-31T06:39:12.233Z,0.10
2022-12-31T06:41:41.637Z,0.00
2022-12-31T06:44:09.657Z,0.08
2022-12-31T06:46:37.766Z,0.00
2022-12-31T06:49:05.842Z,0.00
2022-12-31T06:51:33.867Z,0.10
2022-12-31T06:54:02.003Z,0.08
2022-12-31T06:56:34.535Z,0.00
2022-12-31T06:59:05.278Z,0.10
2022-12-31T07:01:44.963Z,0.10
2022-12-31T07:04:42.997Z,0.10
2022-12-31T07:07:22.112Z,0.10
2022-12-31T07:09:58.554Z,0.00
2022-12-31T07:12:37.370Z,0.10
2022-12-31T07:15:15.968Z,0.10
2022-12-31T07:17:52.108Z,0.15
2022-12-31T07:20:21.083Z,0.25
2022-12-31T07:22:49.761Z,0.10
2022-12-31T07:25:19.522Z,0.08
2022-12-31T07:28:00.575Z,0.20
2022-12-31T07:30:40.974Z,0.03
2022-12-31T07:33:34.075Z,0.10
2022-12-31T07:36:13.821Z,0.10
2022-12-31T07:38:51.291Z,0.25
2022-12-31T07:41:30.361Z,0.28
2022-12-31T07:44:05.022Z,0.10
2022-12-31T07:46:44.196Z,0.20
2022-12-31T07:49:13.785Z,0.10
2022-12-31T07:51:42.869Z,0.10
2022-12-31T07:54:14.121Z,0.20
2022-12-31T07:56:42.716Z,0.50
2022-12-31T07:59:24.887Z,0.15
2022-12-31T08:02:00.150Z,0.10
2022-12-31T08:04:36.917Z,0.38
2022-12-31T08:07:15.142Z,0.10
2022-12-31T08:09:51.276Z,0.30
2022-12-31T08:12:20.532Z,0.10
2022-12-31T08:14:49.451Z,0.03
2022-12-31T08:17:20.546Z,0.22
2022-12-31T08:19:49.151Z,0.20
2022-12-31T08:22:39.516Z,0.00
2022-12-31T08:25:17.673Z,0.45
2022-12-31T08:27:54.103Z,0.10
2022-12-31T08:30:23.296Z,0.30
2022-12-31T08:33:01.228Z,0.10
2022-12-31T08:35:36.780Z,0.13
2022-12-31T08:38:25.035Z,0.30
2022-12-31T08:41:00.471Z,0.38
2022-12-31T08:43:41.068Z,0.35
2022-12-31T08:46:18.503Z,0.22
2022-12-31T08:48:48.759Z,0.30
2022-12-31T08:51:20.622Z,0.17
2022-12-31T08:53:49.247Z,0.28
2022-12-31T08:56:27.534Z,0.43
2022-12-31T08:59:05.059Z,0.50
2022-12-31T09:01:43.993Z,0.20
2022-12-31T09:04:23.835Z,0.30
2022-12-31T09:06:59.640Z,0.10
2022-12-31T09:09:38.381Z,0.32
2022-12-31T09:12:15.483Z,0.28
2022-12-31T09:14:47.079Z,0.20
2022-12-31T09:17:43.910Z,0.38
2022-12-31T09:20:20.477Z,0.10
2022-12-31T09:22:48.855Z,0.03
2022-12-31T09:25:19.153Z,0.45
2022-12-31T09:27:58.971Z,0.10
2022-12-31T09:30:29.907Z,0.15
2022-12-31T09:33:05.798Z,0.30
2022-12-31T09:35:39.685Z,0.32
2022-12-31T09:38:15.355Z,0.40
2022-12-31T09:41:13.508Z,0.20
2022-12-31T09:44:25.987Z,0.20
2022-12-31T09:47:40.583Z,0.35
2022-12-31T09:50:45.409Z,0.30
2022-12-31T09:53:36.722Z,0.30
2022-12-31T09:56:12.672Z,0.65
2022-12-31T09:58:51.914Z,0.63
2022-12-31T10:01:31.496Z,0.28
2022-12-31T10:04:29.666Z,0.20
2022-12-31T10:07:10.033Z,0.20
2022-12-31T10:09:51.140Z,0.20
2022-12-31T10:12:47.308Z,0.10
2022-12-31T10:15:38.304Z,0.30
2022-12-31T10:18:23.336Z,0.20
2022-12-31T10:21:04.503Z,0.17
2022-12-31T10:24:04.965Z,0.35
2022-12-31T10:26:53.586Z,0.20
2022-12-31T10:29:33.031Z,0.43
2022-12-31T10:32:18.689Z,0.32
2022-12-31T10:34:56.064Z,0.55
2022-12-31T10:37:29.950Z,0.50
2022-12-31T10:40:12.895Z,0.22
2022-12-31T10:43:25.459Z,0.38
2022-12-31T10:46:32.176Z,0.22
2022-12-31T10:49:49.051Z,0.20
2022-12-31T10:53:02.149Z,0.35
2022-12-31T10:55:54.270Z,0.77
2022-12-31T10:58:50.455Z,0.32
2022-12-31T11:01:26.863Z,0.40
2022-12-31T11:04:26.623Z,0.30
2022-12-31T11:07:41.654Z,0.20
2022-12-31T11:10:38.751Z,0.10
2022-12-31T11:13:31.392Z,0.40
2022-12-31T11:16:16.428Z,0.30
2022-12-31T11:18:58.978Z,0.38
2022-12-31T11:21:41.395Z,0.43
2022-12-31T11:24:25.665Z,0.40
2022-12-31T11:27:10.998Z,0.28
2022-12-31T11:29:56.797Z,0.30
2022-12-31T11:32:39.083Z,0.30
2022-12-31T11:35:23.224Z,0.40
2022-12-31T11:37:52.973Z,0.32
2022-12-31T11:40:42.030Z,0.43
2022-12-31T11:43:24.951Z,0.13
2022-12-31T11:46:28.827Z,0.55
2022-12-31T11:49:17.389Z,0.52
2022-12-31T11:52:21.643Z,0.63
2022-12-31T11:55:17.883Z,0.38
2022-12-31T11:57:50.887Z,0.20
2022-12-31T12:00:21.016Z,0.63
2022-12-31T12:02:51.343Z,0.30
2022-12-31T12:05:21.785Z,0.40
2022-12-31T12:07:52.178Z,0.57
2022-12-31T12:10:33.572Z,0.35
2022-12-31T12:13:14.410Z,0.32
2022-12-31T12:15:47.094Z,0.52
2022-12-31T12:18:25.672Z,0.40
2022-12-31T12:20:55.811Z,0.30
2022-12-31T12:23:27.726Z,0.32
2022-12-31T12:25:55.940Z,0.30
2022-12-31T12:28:26.152Z,0.40
2022-12-31T12:30:57.370Z,0.25
2022-12-31T12:33:25.829Z,0.30
2022-12-31T12:35:54.118Z,0.30
2022-12-31T12:38:24.663Z,0.52
2022-12-31T12:40:58.582Z,0.30
2022-12-31T12:43:28.711Z,0.63
2022-12-31T12:46:01.557Z,0.30
2022-12-31T12:48:38.113Z,0.40
2022-12-31T12:51:19.434Z,0.40
2022-12-31T12:53:59.066Z,0.30
2022-12-31T12:56:35.634Z,0.73
2022-12-31T12:59:22.253Z,0.20
2022-12-31T13:01:59.712Z,0.32
2022-12-31T13:04:49.213Z,0.60
2022-12-31T13:07:27.536Z,0.57
2022-12-31T13:10:29.319Z,0.47
2022-12-31T13:13:23.952Z,0.28
2022-12-31T13:16:00.104Z,0.73
2022-12-31T13:18:44.371Z,0.47
2022-12-31T13:21:28.185Z,0.50
2022-12-31T13:24:01.992Z,0.60
2022-12-31T13:26:37.087Z,0.50
2022-12-31T13:29:07.046Z,0.50
2022-12-31T13:31:37.425Z,0.40
2022-12-31T13:34:11.761Z,0.25
2022-12-31T13:36:42.603Z,0.63
2022-12-31T13:39:16.514Z,0.35
2022-12-31T13:41:52.582Z,0.30
2022-12-31T13:44:28.542Z,0.65
2022-12-31T13:47:01.753Z,0.50
2022-12-31T13:49:33.673Z,0.38
2022-12-31T13:52:10.982Z,0.40
2022-12-31T13:54:45.688Z,0.73
2022-12-31T13:57:24.651Z,0.93
2022-12-31T13:59:59.327Z,0.57
2022-12-31T14:02:35.054Z,0.88
2022-12-31T14:05:13.897Z,0.28
2022-12-31T14:07:46.893Z,0.45
2022-12-31T14:10:15.956Z,1.00
2022-12-31T14:12:52.462Z,0.80
2022-12-31T14:15:25.119Z,0.45
2022-12-31T14:18:04.148Z,0.60
2022-12-31T14:20:41.577Z,0.60
2022-12-31T14:23:16.882Z,0.32
2022-12-31T14:25:52.544Z,0.68
2022-12-31T14:28:27.284Z,0.82
2022-12-31T14:31:01.245Z,0.32
2022-12-31T14:33:52.498Z,0.43
2022-12-31T14:36:32.213Z,0.55
2022-12-31T14:39:14.384Z,0.32
2022-12-31T14:41:53.818Z,0.50
2022-12-31T14:44:37.785Z,1.05
2022-12-31T14:47:21.324Z,0.63
2022-12-31T14:50:01.088Z,0.73
2022-12-31T14:52:31.571Z,0.50
2022-12-31T14:55:02.737Z,0.50
2022-12-31T14:58:01.633Z,0.50
2022-12-31T15:00:34.807Z,0.60
2022-12-31T15:03:05.376Z,0.47
2022-12-31T15:05:35.201Z,0.82
2022-12-31T15:08:27.563Z,0.90
2022-12-31T15:11:10.455Z,0.75
2022-12-31T15:13:53.742Z,0.35
2022-12-31T15:16:41.032Z,0.55
2022-12-31T15:19:46.331Z,0.80
2022-12-31T15:22:30.212Z,0.68
2022-12-31T15:25:01.169Z,0.88
2022-12-31T15:27:38.952Z,0.43
2022-12-31T15:30:22.767Z,0.35
2022-12-31T15:32:52.520Z,0.65
2022-12-31T15:35:30.048Z,0.88
2022-12-31T15:38:03.606Z,0.50
2022-12-31T15:40:31.904Z,0.40
2022-12-31T15:43:04.285Z,0.60
2022-12-31T15:45:37.678Z,0.80
2022-12-31T15:48:15.368Z,0.80
2022-12-31T15:50:45.458Z,0.60
2022-12-31T15:53:27.343Z,0.47
2022-12-31T15:55:58.852Z,0.77
2022-12-31T15:58:30.975Z,0.40
2022-12-31T16:01:06.325Z,0.88
2022-12-31T16:03:36.015Z,0.50
2022-12-31T16:06:11.869Z,1.05
2022-12-31T16:08:41.966Z,1.50
2022-12-31T16:11:11.026Z,1.30
2022-12-31T16:13:43.135Z,0.70
2022-12-31T16:16:22.098Z,1.02
2022-12-31T16:18:52.980Z,1.08
2022-12-31T16:21:33.863Z,0.60
2022-12-31T16:24:07.157Z,0.55
2022-12-31T16:26:40.099Z,0.60
2022-12-31T16:29:08.245Z,0.80
2022-12-31T16:31:36.463Z,0.60
2022-12-31T16:34:07.867Z,0.90
2022-12-31T16:36:36.667Z,0.80
2022-12-31T16:39:29.979Z,1.10
2022-12-31T16:42:10.791Z,1.10
2022-12-31T16:44:38.913Z,0.60
2022-12-31T16:47:08.527Z,0.80
2022-12-31T16:49:41.178Z,0.80
2022-12-31T16:52:19.421Z,0.85
2022-12-31T16:54:49.262Z,0.88
2022-12-31T16:57:22.530Z,0.75
2022-12-31T16:59:55.312Z,0.47
2022-12-31T17:02:28.736Z,0.63
2022-12-31T17:05:02.267Z,0.60
2022-12-31T17:07:41.441Z,0.88
2022-12-31T17:10:28.069Z,0.60
2022-12-31T17:13:28.419Z,1.00
2022-12-31T17:15:47.131Z,0.77
2022-12-31T17:18:19.749Z,1.00
2022-12-31T17:20:51.109Z,0.90
2022-12-31T17:23:27.819Z,0.80
2022-12-31T17:26:00.531Z,0.60
2022-12-31T17:28:41.220Z,1.05
2022-12-31T17:31:28.619Z,0.60
2022-12-31T17:34:21.366Z,1.17
2022-12-31T17:37:19.331Z,0.93
2022-12-31T17:39:49.868Z,1.10
2022-12-31T17:42:27.370Z,0.80
2022-12-31T17:44:58.176Z,1.10
2022-12-31T17:47:37.605Z,1.25
2022-12-31T17:50:19.198Z,0.73
2022-12-31T17:52:49.101Z,0.63
2022-12-31T17:55:17.507Z,1.38
2022-12-31T17:57:50.995Z,0.55
2022-12-31T18:00:20.767Z,0.80
2022-12-31T18:02:48.936Z,0.70
2022-12-31T18:05:18.201Z,0.93
2022-12-31T18:07:46.259Z,0.98
2022-12-31T18:10:18.931Z,0.93
2022-12-31T18:12:48.543Z,0.57
2022-12-31T18:15:17.982Z,0.75
2022-12-31T18:17:46.086Z,1.08
2022-12-31T18:20:15.097Z,0.80
2022-12-31T18:22:44.286Z,1.02
2022-12-31T18:25:18.030Z,0.98
2022-12-31T18:27:46.091Z,0.70
2022-12-31T18:30:16.471Z,0.80
2022-12-31T18:32:45.937Z,1.00
2022-12-31T18:35:40.316Z,1.02
2022-12-31T18:38:04.831Z,0.70
2022-12-31T18:40:34.552Z,1.17
2022-12-31T18:43:05.084Z,1.00
2022-12-31T18:45:33.684Z,1.02
2022-12-31T18:48:01.779Z,0.63
2022-12-31T18:50:29.886Z,0.85
2022-12-31T18:52:58.037Z,0.90
2022-12-31T18:55:28.750Z,0.90
2022-12-31T18:57:58.233Z,1.02
2022-12-31T19:00:26.640Z,1.27
2022-12-31T19:02:54.809Z,0.75
2022-12-31T19:05:25.189Z,1.00
2022-12-31T19:07:53.283Z,0.90
2022-12-31T19:10:21.472Z,0.80
2022-12-31T19:12:49.700Z,1.23
2022-12-31T19:15:32.886Z,1.10
2022-12-31T19:18:01.389Z,1.75
2022-12-31T19:20:29.954Z,1.10
2022-12-31T19:22:58.647Z,1.30
2022-12-31T19:25:28.906Z,1.38
2022-12-31T19:27:56.990Z,0.90
2022-12-31T19:30:27.077Z,1.17
2022-12-31T19:32:57.075Z,0.80
2022-12-31T19:35:26.007Z,0.55
2022-12-31T19:37:55.729Z,0.93
2022-12-31T19:40:26.223Z,0.70
2022-12-31T19:42:55.890Z,0.90
2022-12-31T19:45:26.267Z,1.20
2022-12-31T19:47:57.254Z,0.82
2022-12-31T19:50:26.874Z,0.70
2022-12-31T19:52:57.729Z,0.80
2022-12-31T19:55:26.530Z,0.88
2022-12-31T19:57:54.804Z,0.70
2022-12-31T20:00:23.328Z,0.68
2022-12-31T20:02:51.662Z,1.02
2022-12-31T20:05:21.229Z,0.80
2022-12-31T20:07:49.520Z,1.00
2022-12-31T20:10:17.809Z,1.10
2022-12-31T20:12:45.894Z,0.90
2022-12-31T20:15:13.961Z,0.80
2022-12-31T20:17:42.102Z,0.80
2022-12-31T20:20:10.669Z,0.80
2022-12-31T20:22:40.381Z,0.93
2022-12-31T20:25:08.971Z,0.85
2022-12-31T20:27:37.035Z,0.65
2022-12-31T20:30:05.795Z,1.20
2022-12-31T20:32:34.759Z,1.25
2022-12-31T20:35:03.928Z,0.70
2022-12-31T20:37:32.041Z,0.80
2022-12-31T20:40:01.427Z,0.90
2022-12-31T20:42:29.650Z,1.00
2022-12-31T20:44:57.815Z,1.00
2022-12-31T20:47:25.898Z,1.13
2022-12-31T20:50:11.116Z,1.08
2022-12-31T20:52:40.216Z,1.17
2022-12-31T20:55:11.014Z,1.02
2022-12-31T20:57:39.087Z,1.02
2022-12-31T21:00:08.311Z,1.27
2022-12-31T21:02:42.030Z,1.10
2022-12-31T21:05:11.339Z,0.50
2022-12-31T21:07:39.862Z,0.68
2022-12-31T21:10:10.200Z,1.10
2022-12-31T21:12:52.997Z,1.05
2022-12-31T21:15:23.884Z,1.05
2022-12-31T21:17:51.965Z,1.17
2022-12-31T21:20:20.230Z,0.90
2022-12-31T21:22:48.345Z,1.00
2022-12-31T21:25:17.870Z,1.00
2022-12-31T21:27:46.124Z,1.08
2022-12-31T21:30:19.358Z,1.38
2022-12-31T21:32:47.933Z,1.15
2022-12-31T21:35:43.376Z,1.25
2022-12-31T21:38:05.462Z,1.23
2022-12-31T21:40:35.138Z,1.08
2022-12-31T21:43:03.156Z,1.13
2022-12-31T21:45:31.241Z,0.80
2022-12-31T21:48:17.622Z,0.98
2022-12-31T21:50:48.468Z,0.80
2022-12-31T21:53:23.452Z,1.10
2022-12-31T21:56:09.352Z,1.00
2022-12-31T21:58:38.249Z,1.00
2022-12-31T22:01:24.657Z,0.63
2022-12-31T22:03:53.484Z,0.82
2022-12-31T22:06:23.735Z,0.82
2022-12-31T22:08:54.139Z,0.90
2022-12-31T22:11:25.830Z,1.20
2022-12-31T22:13:54.753Z,1.40
2022-12-31T22:16:23.611Z,0.73
2022-12-31T22:18:51.966Z,0.95
2022-12-31T22:21:21.567Z,1.05
2022-12-31T22:23:52.181Z,1.10
2022-12-31T22:26:27.147Z,1.60
2022-12-31T22:28:59.070Z,1.35
2022-12-31T22:31:29.978Z,0.82
2022-12-31T22:33:59.350Z,1.13
2022-12-31T22:36:27.771Z,0.88
2022-12-31T22:38:58.158Z,1.48
2022-12-31T22:41:28.782Z,1.08
2022-12-31T22:44:05.064Z,0.90
2022-12-31T22:46:34.348Z,0.85
2022-12-31T22:49:03.869Z,1.02
2022-12-31T22:51:55.024Z,1.13
2022-12-31T22:54:21.803Z,1.48
2022-12-31T22:56:51.324Z,1.63
2022-12-31T22:59:19.362Z,3.80
2022-12-31T23:01:47.750Z,2.47
2022-12-31T23:04:16.079Z,5.18
2022-12-31T23:06:47.332Z,9.30
2022-12-31T23:09:34.472Z,8.65
2022-12-31T23:12:04.741Z,3.88
2022-12-31T23:14:50.429Z,8.68
2022-12-31T23:17:37.904Z,6.07
2022-12-31T23:20:26.521Z,5.35
2022-12-31T23:23:12.897Z,6.35
2022-12-31T23:25:43.993Z,3.38
2022-12-31T23:28:15.405Z,2.92
2022-12-31T23:30:44.227Z,1.60
2022-12-31T23:33:16.362Z,1.90
2022-12-31T23:35:44.693Z,1.88
2022-12-31T23:38:12.787Z,1.23
2022-12-31T23:40:41.071Z,1.10
2022-12-31T23:43:11.025Z,1.63
2022-12-31T23:45:40.585Z,1.48
2022-12-31T23:48:08.640Z,1.42
2022-12-31T23:50:36.723Z,1.15
2022-12-31T23:53:04.791Z,1.10
2022-12-31T23:55:33.573Z,1.30
2022-12-31T23:58:01.586Z,1.40
